Bingham, New Mexico
Current Conditions -  °F | °C
As of 12:55 AM on Thursday 27 Nov 2014 (Local Time) from KSRR Reporting Station
Clear Clear  
Wind Chill: 39°   Ceiling: Unl
Heat Index: 43°   Visibility: 10mi
Dew Point: 19°   Wind: 6mph
Humidity: 39%   Direction: 340°NNW
Pressure: 30.43"   Gusts: NA
Location:  34.0228°N, 106.016°W
Report Text: KSRR 270755Z AUTO 34005KT 10SM CLR 06/M07 A3043 RMK AO2
Loading
Personal Weather Stations






























Interactive Weather Map New forecast layout! Learn more

10-Day Weather Forecast

Advertisements
Track Severe Weather on mobile